createdAt,value
2022-07-25T00:02:07.329Z,100381.91
2022-07-25T00:04:36.672Z,100390.03
2022-07-25T00:07:09.121Z,100397.66
2022-07-25T00:09:36.823Z,100391.97
2022-07-25T00:12:11.724Z,100392.34
2022-07-25T00:14:40.218Z,100387.75
2022-07-25T00:17:08.483Z,100390.25
2022-07-25T00:19:36.182Z,100380.84
2022-07-25T00:22:03.984Z,100390.63
2022-07-25T00:24:32.366Z,100392.81
2022-07-25T00:26:59.944Z,100392.81
2022-07-25T00:29:28.723Z,100398.06
2022-07-25T00:31:56.355Z,100388.59
2022-07-25T00:34:23.958Z,100394.47
2022-07-25T00:36:51.790Z,100395.47
2022-07-25T00:39:22.060Z,100401.59
2022-07-25T00:41:49.842Z,100393.63
2022-07-25T00:44:32.421Z,100405.03
2022-07-25T00:47:01.497Z,100406.69
2022-07-25T00:49:29.604Z,100400.06
2022-07-25T00:51:57.309Z,100392.84
2022-07-25T00:54:25.458Z,100386.25
2022-07-25T00:56:53.179Z,100385.41
2022-07-25T00:59:23.579Z,100380.03
2022-07-25T01:01:51.563Z,100386.41
2022-07-25T01:04:19.390Z,100393.16
2022-07-25T01:06:47.296Z,100388.28
2022-07-25T01:09:15.067Z,100397.66
2022-07-25T01:11:42.801Z,100390.28
2022-07-25T01:14:10.622Z,100390.72
2022-07-25T01:16:38.344Z,100386.44
2022-07-25T01:19:06.088Z,100385.41
2022-07-25T01:21:33.761Z,100388.09
2022-07-25T01:24:01.958Z,100393.72
2022-07-25T01:26:30.683Z,100391.09
2022-07-25T01:28:58.318Z,100384.66
2022-07-25T01:31:26.415Z,100390.53
2022-07-25T01:33:54.071Z,100384.25
2022-07-25T01:36:21.943Z,100385.09
2022-07-25T01:38:49.572Z,100387.59
2022-07-25T01:41:22.469Z,100382.63
2022-07-25T01:43:50.594Z,100382.88
2022-07-25T01:46:18.330Z,100372.59
2022-07-25T01:48:46.197Z,100374.44
2022-07-25T01:51:14.639Z,100373.31
2022-07-25T01:53:42.392Z,100372.81
2022-07-25T01:56:13.388Z,100373.66
2022-07-25T01:58:42.161Z,100370.13
2022-07-25T02:01:09.840Z,100381.78
2022-07-25T02:03:37.463Z,100381.78
2022-07-25T02:06:06.665Z,100398.72
2022-07-25T02:08:34.677Z,100400.50
2022-07-25T02:11:03.359Z,100402.03
2022-07-25T02:13:32.122Z,100398.72
2022-07-25T02:16:00.289Z,100394.13
2022-07-25T02:18:27.934Z,100391.47
2022-07-25T02:20:55.551Z,100392.13
2022-07-25T02:23:23.369Z,100399.50
2022-07-25T02:25:51.007Z,100401.19
2022-07-25T02:28:18.574Z,100402.75
2022-07-25T02:30:46.697Z,100400.56
2022-07-25T02:33:14.437Z,100407.88
2022-07-25T02:35:42.333Z,100397.66
2022-07-25T02:38:09.977Z,100397.56
2022-07-25T02:40:37.996Z,100386.75
2022-07-25T02:43:05.656Z,100393.25
2022-07-25T02:45:35.241Z,100386.97
2022-07-25T02:48:03.584Z,100385.66
2022-07-25T02:50:31.347Z,100377.53
2022-07-25T02:52:58.972Z,100380.81
2022-07-25T02:55:27.016Z,100377.22
2022-07-25T02:57:54.644Z,100382.28
2022-07-25T03:00:22.890Z,100373.47
2022-07-25T03:02:50.673Z,100375.44
2022-07-25T03:05:18.348Z,100376.19
2022-07-25T03:07:46.327Z,100377.69
2022-07-25T03:10:14.447Z,100374.38
2022-07-25T03:12:42.848Z,100372.75
2022-07-25T03:15:12.178Z,100370.34
2022-07-25T03:17:40.095Z,100381.47
2022-07-25T03:20:08.309Z,100387.88
2022-07-25T03:22:36.145Z,100377.56
2022-07-25T03:25:04.123Z,100379.81
2022-07-25T03:27:32.247Z,100385.63
2022-07-25T03:30:00.309Z,100389.75
2022-07-25T03:32:28.006Z,100387.53
2022-07-25T03:34:55.752Z,100391.22
2022-07-25T03:37:23.625Z,100392.78
2022-07-25T03:39:51.325Z,100393.69
2022-07-25T03:42:22.495Z,100393.94
2022-07-25T03:44:54.037Z,100388.44
2022-07-25T03:47:25.162Z,100385.38
2022-07-25T03:49:52.954Z,100382.13
2022-07-25T03:52:20.576Z,100381.59
2022-07-25T03:54:48.557Z,100385.63
2022-07-25T03:57:16.346Z,100380.72
2022-07-25T03:59:43.958Z,100380.50
2022-07-25T04:02:11.623Z,100380.03
2022-07-25T04:04:39.357Z,100378.63
2022-07-25T04:07:07.208Z,100381.16
2022-07-25T04:09:34.976Z,100375.63
2022-07-25T04:12:03.078Z,100393.16
2022-07-25T04:14:31.215Z,100389.38
2022-07-25T04:16:58.908Z,100397.47
2022-07-25T04:19:28.894Z,100395.16
2022-07-25T04:21:57.021Z,100396.09
2022-07-25T04:24:25.105Z,100393.00
2022-07-25T04:26:52.771Z,100391.69
2022-07-25T04:29:20.691Z,100388.22
2022-07-25T04:31:48.794Z,100383.88
2022-07-25T04:34:16.518Z,100387.22
2022-07-25T04:36:44.688Z,100383.16
2022-07-25T04:39:12.540Z,100385.69
2022-07-25T04:41:40.154Z,100379.16
2022-07-25T04:44:09.106Z,100376.94
2022-07-25T04:46:37.225Z,100376.69
2022-07-25T04:49:06.113Z,100374.63
2022-07-25T04:51:34.078Z,100379.34
2022-07-25T04:54:01.862Z,100379.66
2022-07-25T04:56:30.378Z,100378.84
2022-07-25T04:59:03.121Z,100383.22
2022-07-25T05:01:35.438Z,100382.13
2022-07-25T05:04:05.688Z,100380.22
2022-07-25T05:06:33.681Z,100371.63
2022-07-25T05:09:02.146Z,100374.44
2022-07-25T05:11:30.175Z,100377.22
2022-07-25T05:13:59.989Z,100380.94
2022-07-25T05:16:27.679Z,100384.53
2022-07-25T05:18:55.344Z,100387.16
2022-07-25T05:21:23.046Z,100374.97
2022-07-25T05:23:50.954Z,100386.97
2022-07-25T05:26:18.686Z,100378.63
2022-07-25T05:28:47.604Z,100378.88
2022-07-25T05:31:15.404Z,100378.84
2022-07-25T05:33:42.999Z,100379.66
2022-07-25T05:36:10.680Z,100381.88
2022-07-25T05:38:38.945Z,100371.81
2022-07-25T05:41:07.044Z,100368.78
2022-07-25T05:43:34.901Z,100366.28
2022-07-25T05:46:05.616Z,100368.22
2022-07-25T05:48:33.372Z,100370.44
2022-07-25T05:51:01.144Z,100361.59
2022-07-25T05:53:29.213Z,100358.69
2022-07-25T05:55:56.993Z,100357.63
2022-07-25T05:58:29.403Z,100362.94
2022-07-25T06:00:58.428Z,100369.91
2022-07-25T06:03:31.645Z,100361.88
2022-07-25T06:05:59.260Z,100351.56
2022-07-25T06:08:31.206Z,100357.06
2022-07-25T06:10:59.985Z,100352.38
2022-07-25T06:13:28.476Z,100347.41
2022-07-25T06:15:56.574Z,100350.53
2022-07-25T06:18:24.603Z,100349.47
2022-07-25T06:20:52.519Z,100347.56
2022-07-25T06:23:20.268Z,100351.75
2022-07-25T06:25:50.028Z,100356.13
2022-07-25T06:28:18.089Z,100352.00
2022-07-25T06:30:47.613Z,100348.91
2022-07-25T06:33:18.381Z,100341.09
2022-07-25T06:35:46.054Z,100330.25
2022-07-25T06:38:13.729Z,100331.38
2022-07-25T06:40:41.491Z,100334.69
2022-07-25T06:43:09.218Z,100337.47
2022-07-25T06:45:36.955Z,100330.75
2022-07-25T06:48:06.436Z,100325.75
2022-07-25T06:50:34.182Z,100333.00
2022-07-25T06:53:01.874Z,100325.81
2022-07-25T06:55:29.869Z,100331.69
2022-07-25T06:57:57.578Z,100334.75
2022-07-25T07:00:25.424Z,100345.34
2022-07-25T07:02:58.673Z,100338.66
2022-07-25T07:05:28.675Z,100338.59
2022-07-25T07:07:56.325Z,100342.50
2022-07-25T07:10:24.226Z,100343.03
2022-07-25T07:13:08.366Z,100357.72
2022-07-25T07:15:38.238Z,100355.66
2022-07-25T07:18:06.869Z,100356.28
2022-07-25T07:20:34.890Z,100345.38
2022-07-25T07:23:02.943Z,100350.09
2022-07-25T07:25:31.003Z,100348.97
2022-07-25T07:27:59.267Z,100347.94
2022-07-25T07:30:52.126Z,100346.25
2022-07-25T07:33:14.575Z,100341.16
2022-07-25T07:35:46.605Z,100342.88
2022-07-25T07:38:15.003Z,100333.47
2022-07-25T07:40:42.907Z,100345.13
2022-07-25T07:43:11.331Z,100349.03
2022-07-25T07:45:40.549Z,100349.91
2022-07-25T07:48:08.345Z,100354.41
2022-07-25T07:50:36.708Z,100354.22
2022-07-25T07:53:04.689Z,100352.03
2022-07-25T07:55:44.313Z,100348.13
2022-07-25T07:58:15.792Z,100342.56
2022-07-25T08:00:51.180Z,100360.34
2022-07-25T08:03:20.686Z,100357.88
2022-07-25T08:05:49.383Z,100363.69
2022-07-25T08:08:17.178Z,100356.72
2022-07-25T08:10:46.162Z,100353.63
2022-07-25T08:13:17.767Z,100353.91
2022-07-25T08:15:46.572Z,100351.78
2022-07-25T08:18:17.527Z,100356.22
2022-07-25T08:20:46.783Z,100352.00
2022-07-25T08:23:14.935Z,100351.78
2022-07-25T08:25:43.024Z,100359.63
2022-07-25T08:28:10.845Z,100359.97
2022-07-25T08:30:38.906Z,100367.19
2022-07-25T08:33:10.751Z,100368.94
2022-07-25T08:35:40.150Z,100365.63
2022-07-25T08:38:07.832Z,100365.25
2022-07-25T08:40:36.165Z,100364.97
2022-07-25T08:43:04.603Z,100366.38
2022-07-25T08:45:32.334Z,100365.00
2022-07-25T08:48:00.204Z,100367.78
2022-07-25T08:50:29.342Z,100360.00
2022-07-25T08:53:16.551Z,100356.19
2022-07-25T08:55:45.953Z,100354.19
2022-07-25T08:58:17.378Z,100358.50
2022-07-25T09:00:45.257Z,100354.25
2022-07-25T09:03:13.510Z,100348.75
2022-07-25T09:05:41.470Z,100350.69
2022-07-25T09:08:13.809Z,100356.97
2022-07-25T09:10:48.801Z,100356.03
2022-07-25T09:13:18.843Z,100337.94
2022-07-25T09:15:49.547Z,100339.59
2022-07-25T09:18:22.514Z,100349.81
2022-07-25T09:21:01.773Z,100340.44
2022-07-25T09:23:37.219Z,100339.41
2022-07-25T09:26:12.446Z,100342.47
2022-07-25T09:28:51.425Z,100346.41
2022-07-25T09:31:19.458Z,100338.25
2022-07-25T09:33:59.259Z,100342.84
2022-07-25T09:36:27.053Z,100334.44
2022-07-25T09:39:02.083Z,100338.69
2022-07-25T09:41:36.949Z,100343.41
2022-07-25T09:44:05.493Z,100335.94
2022-07-25T09:46:33.474Z,100328.47
2022-07-25T09:49:01.351Z,100323.44
2022-07-25T09:51:29.383Z,100325.53
2022-07-25T09:53:57.348Z,100314.00
2022-07-25T09:56:25.117Z,100319.22
2022-07-25T09:58:53.093Z,100321.16
2022-07-25T10:01:28.140Z,100310.78
2022-07-25T10:04:15.512Z,100315.41
2022-07-25T10:06:57.739Z,100310.78
2022-07-25T10:09:25.537Z,100312.53
2022-07-25T10:12:08.705Z,100315.53
2022-07-25T10:14:36.908Z,100318.75
2022-07-25T10:17:05.600Z,100325.16
2022-07-25T10:19:50.194Z,100329.91
2022-07-25T10:22:34.399Z,100310.91
2022-07-25T10:25:19.406Z,100314.38
2022-07-25T10:27:53.869Z,100308.13
2022-07-25T10:30:37.798Z,100310.19
2022-07-25T10:33:11.901Z,100308.34
2022-07-25T10:35:39.903Z,100304.00
2022-07-25T10:38:07.819Z,100315.63
2022-07-25T10:40:39.157Z,100302.53
2022-07-25T10:43:13.800Z,100305.88
2022-07-25T10:45:43.873Z,100285.06
2022-07-25T10:48:13.169Z,100290.50
2022-07-25T10:50:56.292Z,100292.63
2022-07-25T10:53:31.844Z,100291.69
2022-07-25T10:56:05.966Z,100295.69
2022-07-25T10:58:51.431Z,100291.97
2022-07-25T11:01:24.233Z,100285.63
2022-07-25T11:03:53.097Z,100280.88
2022-07-25T11:06:42.150Z,100277.16
2022-07-25T11:09:27.545Z,100285.66
2022-07-25T11:11:57.441Z,100271.06
2022-07-25T11:14:25.895Z,100282.09
2022-07-25T11:16:55.212Z,100280.88
2022-07-25T11:19:27.539Z,100275.72
2022-07-25T11:21:56.406Z,100275.06
2022-07-25T11:24:40.605Z,100272.78
2022-07-25T11:27:12.395Z,100273.06
2022-07-25T11:29:41.088Z,100269.34
2022-07-25T11:32:11.362Z,100272.16
2022-07-25T11:34:44.271Z,100275.25
2022-07-25T11:37:12.714Z,100288.22
2022-07-25T11:39:44.717Z,100272.88
2022-07-25T11:42:19.512Z,100265.88
2022-07-25T11:44:49.025Z,100271.59
2022-07-25T11:47:27.034Z,100261.25
2022-07-25T11:49:59.989Z,100284.22
2022-07-25T11:52:36.325Z,100274.03
2022-07-25T11:55:12.157Z,100255.47
2022-07-25T11:57:44.594Z,100263.78
2022-07-25T12:00:15.592Z,100271.88
2022-07-25T12:02:43.404Z,100262.97
2022-07-25T12:05:13.177Z,100258.31
2022-07-25T12:07:48.332Z,100263.09
2022-07-25T12:10:17.656Z,100263.19
2022-07-25T12:12:54.872Z,100253.41
2022-07-25T12:15:31.442Z,100260.19
2022-07-25T12:18:02.975Z,100259.22
2022-07-25T12:20:34.464Z,100261.63
2022-07-25T12:23:05.246Z,100261.13
2022-07-25T12:25:34.142Z,100273.38
2022-07-25T12:28:02.059Z,100271.06
2022-07-25T12:30:32.152Z,100265.16
2022-07-25T12:33:00.310Z,100271.44
2022-07-25T12:35:28.759Z,100264.75
2022-07-25T12:37:56.808Z,100251.16
2022-07-25T12:40:24.685Z,100251.34
2022-07-25T12:42:52.475Z,100244.59
2022-07-25T12:45:20.245Z,100240.31
2022-07-25T12:47:48.124Z,100225.66
2022-07-25T12:50:16.335Z,100233.31
2022-07-25T12:52:44.632Z,100231.94
2022-07-25T12:55:14.415Z,100240.03
2022-07-25T12:57:42.284Z,100234.09
2022-07-25T13:00:13.081Z,100227.63
2022-07-25T13:02:40.881Z,100226.78
2022-07-25T13:05:08.876Z,100237.03
2022-07-25T13:07:37.402Z,100224.00
2022-07-25T13:10:05.777Z,100231.53
2022-07-25T13:12:33.890Z,100222.41
2022-07-25T13:15:04.234Z,100219.47
2022-07-25T13:17:32.247Z,100220.34
2022-07-25T13:20:01.130Z,100221.47
2022-07-25T13:22:29.326Z,100230.63
2022-07-25T13:24:56.965Z,100232.22
2022-07-25T13:27:24.731Z,100218.22
2022-07-25T13:29:54.762Z,100221.84
2022-07-25T13:32:22.908Z,100223.88
2022-07-25T13:34:50.762Z,100226.09
2022-07-25T13:37:18.806Z,100211.25
2022-07-25T13:39:46.544Z,100217.75
2022-07-25T13:42:14.214Z,100231.41
2022-07-25T13:44:42.229Z,100247.94
2022-07-25T13:47:09.913Z,100230.47
2022-07-25T13:49:37.923Z,100235.53
2022-07-25T13:52:06.409Z,100233.00
2022-07-25T13:54:34.305Z,100232.59
2022-07-25T13:57:03.249Z,100231.19
2022-07-25T13:59:33.493Z,100241.66
2022-07-25T14:02:01.222Z,100231.41
2022-07-25T14:04:31.957Z,100233.53
2022-07-25T14:06:59.854Z,100228.88
2022-07-25T14:09:28.338Z,100222.03
2022-07-25T14:12:00.457Z,100208.44
2022-07-25T14:14:28.319Z,100231.69
2022-07-25T14:16:56.226Z,100232.31
2022-07-25T14:19:24.351Z,100225.91
2022-07-25T14:21:52.028Z,100222.63
2022-07-25T14:24:19.682Z,100217.13
2022-07-25T14:26:47.692Z,100222.84
2022-07-25T14:29:15.701Z,100227.19
2022-07-25T14:31:43.492Z,100220.72
2022-07-25T14:34:11.332Z,100233.06
2022-07-25T14:36:39.433Z,100215.88
2022-07-25T14:39:07.427Z,100222.66
2022-07-25T14:41:36.779Z,100224.06
2022-07-25T14:44:04.645Z,100219.72
2022-07-25T14:46:34.505Z,100222.53
2022-07-25T14:49:04.742Z,100224.34
2022-07-25T14:51:33.198Z,100233.75
2022-07-25T14:54:00.808Z,100221.66
2022-07-25T14:56:28.610Z,100229.63
2022-07-25T14:58:56.254Z,100229.78
2022-07-25T15:01:25.697Z,100218.84
2022-07-25T15:03:56.230Z,100239.31
2022-07-25T15:06:28.917Z,100239.28
2022-07-25T15:08:57.782Z,100247.00
2022-07-25T15:11:29.527Z,100261.84
2022-07-25T15:13:58.513Z,100257.50
2022-07-25T15:16:26.311Z,100247.19
2022-07-25T15:19:15.309Z,100254.44
2022-07-25T15:21:41.678Z,100251.97
2022-07-25T15:24:10.276Z,100243.03
2022-07-25T15:26:38.612Z,100245.00
2022-07-25T15:29:08.231Z,100251.25
2022-07-25T15:31:37.078Z,100256.25
2022-07-25T15:34:04.758Z,100267.44
2022-07-25T15:36:32.518Z,100260.44
2022-07-25T15:39:00.083Z,100280.81
2022-07-25T15:41:27.755Z,100272.41
2022-07-25T15:43:55.393Z,100271.41
2022-07-25T15:46:23.500Z,100264.75
2022-07-25T15:48:51.183Z,100272.50
2022-07-25T15:51:21.633Z,100280.31
2022-07-25T15:53:49.319Z,100268.78
2022-07-25T15:56:16.957Z,100264.34
2022-07-25T15:58:44.741Z,100254.13
2022-07-25T16:01:13.245Z,100260.81
2022-07-25T16:03:41.138Z,100254.41
2022-07-25T16:06:09.236Z,100257.13
2022-07-25T16:08:37.283Z,100258.03
2022-07-25T16:11:07.778Z,100252.56
2022-07-25T16:13:36.229Z,100244.50
2022-07-25T16:16:04.445Z,100231.41
2022-07-25T16:18:33.574Z,100236.09
2022-07-25T16:21:01.641Z,100239.53
2022-07-25T16:23:36.192Z,100238.16
2022-07-25T16:26:06.213Z,100236.44
2022-07-25T16:28:36.986Z,100239.38
2022-07-25T16:31:05.802Z,100251.19
2022-07-25T16:33:33.529Z,100250.09
2022-07-25T16:36:01.302Z,100251.13
2022-07-25T16:38:29.212Z,100249.06
2022-07-25T16:40:56.966Z,100255.69
2022-07-25T16:43:24.578Z,100248.16
2022-07-25T16:45:52.922Z,100248.16
2022-07-25T16:48:20.604Z,100247.22
2022-07-25T16:50:48.750Z,100260.06
2022-07-25T16:53:16.960Z,100264.19
2022-07-25T16:55:44.638Z,100254.09
2022-07-25T16:58:12.389Z,100257.25
2022-07-25T17:00:41.975Z,100258.25
2022-07-25T17:03:11.414Z,100258.16
2022-07-25T17:05:40.491Z,100260.91
2022-07-25T17:08:08.185Z,100265.56
2022-07-25T17:10:35.872Z,100264.81
2022-07-25T17:13:03.705Z,100257.13
2022-07-25T17:15:31.474Z,100258.38
2022-07-25T17:17:59.550Z,100252.59
2022-07-25T17:20:27.357Z,100242.59
2022-07-25T17:22:54.962Z,100241.66
2022-07-25T17:25:22.862Z,100243.84
2022-07-25T17:27:50.469Z,100249.44
2022-07-25T17:30:18.185Z,100253.38
2022-07-25T17:32:45.883Z,100250.34
2022-07-25T17:35:13.617Z,100255.66
2022-07-25T17:37:41.772Z,100260.16
2022-07-25T17:40:10.005Z,100266.28
2022-07-25T17:42:41.798Z,100271.59
2022-07-25T17:45:12.570Z,100269.34
2022-07-25T17:47:40.539Z,100277.69
2022-07-25T17:50:08.498Z,100279.28
2022-07-25T17:52:36.162Z,100272.91
2022-07-25T17:55:04.251Z,100276.22
2022-07-25T17:57:33.138Z,100287.03
2022-07-25T18:00:00.817Z,100286.75
2022-07-25T18:02:40.419Z,100290.03
2022-07-25T18:05:08.591Z,100288.06
2022-07-25T18:07:40.881Z,100286.91
2022-07-25T18:10:08.823Z,100289.63
2022-07-25T18:12:36.482Z,100292.66
2022-07-25T18:15:04.923Z,100297.03
2022-07-25T18:17:32.841Z,100291.47
2022-07-25T18:20:00.662Z,100300.63
2022-07-25T18:22:28.368Z,100295.31
2022-07-25T18:24:56.205Z,100288.06
2022-07-25T18:27:27.998Z,100293.34
2022-07-25T18:29:56.164Z,100294.34
2022-07-25T18:32:23.783Z,100287.88
2022-07-25T18:34:51.446Z,100302.00
2022-07-25T18:37:19.582Z,100298.06
2022-07-25T18:39:47.209Z,100303.88
2022-07-25T18:42:14.971Z,100302.72
2022-07-25T18:44:42.878Z,100310.75
2022-07-25T18:47:10.561Z,100305.69
2022-07-25T18:49:39.439Z,100296.22
2022-07-25T18:52:07.034Z,100303.63
2022-07-25T18:54:34.934Z,100303.38
2022-07-25T18:57:03.435Z,100312.81
2022-07-25T18:59:31.237Z,100311.06
2022-07-25T19:01:58.884Z,100309.09
2022-07-25T19:04:26.594Z,100310.09
2022-07-25T19:06:54.661Z,100304.81
2022-07-25T19:09:22.438Z,100313.59
2022-07-25T19:11:53.183Z,100299.38
2022-07-25T19:14:24.126Z,100306.03
2022-07-25T19:16:57.771Z,100304.81
2022-07-25T19:19:25.856Z,100301.38
2022-07-25T19:21:53.738Z,100305.81
2022-07-25T19:24:21.619Z,100300.53
2022-07-25T19:26:49.965Z,100307.22
2022-07-25T19:29:18.159Z,100308.09
2022-07-25T19:31:46.023Z,100309.16
2022-07-25T19:34:13.935Z,100315.53
2022-07-25T19:36:43.730Z,100313.88
2022-07-25T19:39:12.568Z,100310.25
2022-07-25T19:41:44.704Z,100312.00
2022-07-25T19:44:15.159Z,100316.28
2022-07-25T19:46:42.999Z,100309.19
2022-07-25T19:49:11.035Z,100303.44
2022-07-25T19:51:39.771Z,100314.03
2022-07-25T19:54:09.137Z,100303.66
2022-07-25T19:56:38.261Z,100310.53
2022-07-25T19:59:06.448Z,100307.22
2022-07-25T20:01:36.998Z,100320.22
2022-07-25T20:04:05.765Z,100322.63
2022-07-25T20:09:02.087Z,100318.03
2022-07-25T20:11:29.894Z,100322.84
2022-07-25T20:14:00.830Z,100317.66
2022-07-25T20:16:30.862Z,100326.63
2022-07-25T20:18:58.745Z,100328.53
2022-07-25T20:21:27.713Z,100332.06
2022-07-25T20:23:55.441Z,100334.28
2022-07-25T20:26:23.792Z,100327.53
2022-07-25T20:28:51.637Z,100316.41
2022-07-25T20:31:22.352Z,100315.72
2022-07-25T20:33:51.065Z,100317.25
2022-07-25T20:36:19.975Z,100308.47
2022-07-25T20:38:47.731Z,100302.69
2022-07-25T20:41:16.265Z,100303.44
2022-07-25T20:43:44.324Z,100309.47
2022-07-25T20:46:12.569Z,100311.25
2022-07-25T20:48:40.528Z,100296.13
2022-07-25T20:51:08.221Z,100293.47
2022-07-25T20:53:35.881Z,100300.34
2022-07-25T20:56:03.667Z,100295.47
2022-07-25T20:58:31.629Z,100293.22
2022-07-25T21:01:00.546Z,100289.56
2022-07-25T21:03:28.313Z,100290.06
2022-07-25T21:05:56.765Z,100279.69
2022-07-25T21:08:24.620Z,100279.88
2022-07-25T21:10:53.451Z,100275.38
2022-07-25T21:13:21.494Z,100272.06
2022-07-25T21:15:49.078Z,100276.78
2022-07-25T21:18:16.835Z,100277.28
2022-07-25T21:20:46.910Z,100275.03
2022-07-25T21:23:14.869Z,100283.81
2022-07-25T21:25:42.578Z,100287.34
2022-07-25T21:28:10.288Z,100293.66
2022-07-25T21:30:41.216Z,100294.72
2022-07-25T21:33:14.313Z,100288.63
2022-07-25T21:35:49.337Z,100292.72
2022-07-25T21:38:26.977Z,100291.22
2022-07-25T21:40:56.441Z,100294.00
2022-07-25T21:43:24.451Z,100297.75
2022-07-25T21:45:52.325Z,100295.75
2022-07-25T21:48:40.222Z,100281.22
2022-07-25T21:51:14.101Z,100291.34
2022-07-25T21:53:54.130Z,100291.00
2022-07-25T21:56:22.389Z,100289.00
2022-07-25T21:58:50.110Z,100286.50
2022-07-25T22:01:22.413Z,100291.16
2022-07-25T22:03:52.434Z,100290.31
2022-07-25T22:06:20.139Z,100292.69
2022-07-25T22:08:51.584Z,100287.63
2022-07-25T22:11:39.092Z,100291.47
2022-07-25T22:14:07.612Z,100284.22
2022-07-25T22:16:35.577Z,100284.59
2022-07-25T22:19:03.582Z,100276.91
2022-07-25T22:21:33.054Z,100270.53
2022-07-25T22:24:00.681Z,100274.41
2022-07-25T22:26:28.289Z,100268.78
2022-07-25T22:28:56.171Z,100274.03
2022-07-25T22:31:24.035Z,100278.88
2022-07-25T22:33:51.965Z,100276.13
2022-07-25T22:36:19.645Z,100272.16
2022-07-25T22:38:47.259Z,100276.50
2022-07-25T22:41:14.929Z,100278.34
2022-07-25T22:43:57.869Z,100287.25
2022-07-25T22:46:30.494Z,100283.81
2022-07-25T22:48:58.518Z,100278.38
2022-07-25T22:51:26.820Z,100291.72
2022-07-25T22:53:54.859Z,100279.22
2022-07-25T22:56:22.840Z,100282.13
2022-07-25T22:58:50.524Z,100284.69
2022-07-25T23:01:18.356Z,100286.00
2022-07-25T23:03:47.008Z,100277.47
2022-07-25T23:06:14.653Z,100277.16
2022-07-25T23:08:42.513Z,100274.28
2022-07-25T23:11:12.160Z,100270.53
2022-07-25T23:13:39.832Z,100272.53
2022-07-25T23:16:12.655Z,100277.59
2022-07-25T23:18:41.187Z,100275.66
2022-07-25T23:21:09.341Z,100272.81
2022-07-25T23:23:37.138Z,100266.09
2022-07-25T23:26:05.035Z,100268.50
2022-07-25T23:28:33.007Z,100274.28
2022-07-25T23:31:01.598Z,100270.91
2022-07-25T23:33:30.790Z,100273.66
2022-07-25T23:35:58.659Z,100275.25
2022-07-25T23:38:26.562Z,100268.66
2022-07-25T23:40:56.970Z,100268.75
2022-07-25T23:43:54.387Z,100264.47
2022-07-25T23:46:12.814Z,100264.47
2022-07-25T23:48:41.039Z,100260.63
2022-07-25T23:51:08.767Z,100273.31
2022-07-25T23:53:36.939Z,100265.31
2022-07-25T23:56:05.240Z,100276.69
2022-07-25T23:58:33.615Z,100269.50
